| time (UTC) | temp F | wind direction | speed MPH | gust MPH | rain 1hr in | rain 24hr in | rain mn in | humidity % | barometer mb |
| 20260904012518 | 79 | 161 | 0.0 | 2.0 | 0.00 | 0.74 | 0.74 | 95 | 1012.3 |
| 20260904012019 | 79 | 137 | 0.0 | 2.0 | 0.00 | 0.74 | 0.74 | 95 | 1012.2 |
| 20260904011516 | 79 | 61 | 0.0 | 2.0 | 0.00 | 0.74 | 0.74 | 95 | 1012.1 |
| 20260904011014 | 79 | 93 | 0.0 | 2.0 | 0.00 | 0.74 | 0.74 | 95 | 1012.1 |
| 20260904010513 | 79 | 80 | 0.0 | 2.0 | 0.00 | 0.74 | 0.74 | 95 | 1012.0 |
| 20260904010031 | 79 | 119 | 0.0 | 2.0 | 0.00 | 0.74 | 0.74 | 95 | 1012.1 |
| 20260904005519 | 79 | 111 | 0.0 | 2.0 | 0.00 | 0.74 | 0.74 | 95 | 1012.1 |
| 20260904005016 | 79 | 83 | 1.0 | 2.0 | 0.00 | 0.74 | 0.74 | 95 | 1012.1 |
| 20260904004531 | 79 | 93 | 0.0 | 2.0 | 0.00 | 0.74 | 0.74 | 95 | 1012.1 |
| 20260904004020 | 79 | 41 | 1.0 | 4.0 | 0.00 | 0.74 | 0.74 | 95 | 1012.1 |
| 20260904003515 | 79 | 67 | 0.0 | 4.0 | 0.00 | 0.74 | 0.74 | 95 | 1012.1 |
| 20260904003025 | 79 | 132 | 1.0 | 4.0 | 0.00 | 0.74 | 0.74 | 95 | 1012.1 |
| 20260904002517 | 80 | 67 | 0.0 | 2.0 | 0.00 | 0.74 | 0.74 | 95 | 1012.1 |
| 20260904002017 | 80 | 51 | 1.0 | 3.0 | 0.00 | 0.74 | 0.74 | 95 | 1012.1 |
| 20260904001527 | 79 | 78 | 1.0 | 3.0 | 0.00 | 0.74 | 0.74 | 95 | 1012.1 |
| 20260904001005 | 80 | 123 | 1.0 | 3.0 | 0.00 | 0.74 | 0.74 | 95 | 1012.2 |
| 20260904000510 | 79 | 93 | 1.0 | 3.0 | 0.00 | 0.74 | 0.74 | 95 | 1012.2 |
| 20260904000015 | 80 | 93 | 1.0 | 2.0 | 0.00 | 0.74 | 0.74 | 95 | 1012.3 |
| 20260903235514 | 80 | 51 | 0.0 | 2.0 | 0.00 | 0.74 | 0.74 | 95 | 1012.2 |
| 20260903235012 | 79 | 51 | 1.0 | 3.0 | 0.00 | 0.74 | 0.74 | 95 | 1012.2 |
| 20260903234524 | 79 | 137 | 0.0 | 3.0 | 0.00 | 0.74 | 0.74 | 95 | 1012.2 |
| 20260903234015 | 79 | 51 | 0.0 | 2.0 | 0.00 | 0.74 | 0.74 | 95 | 1012.2 |
| 20260903233517 | 79 | 9 | 1.0 | 3.0 | 0.00 | 0.74 | 0.74 | 95 | 1012.1 |
| 20260903233006 | 79 | 107 | 1.0 | 3.0 | 0.00 | 0.74 | 0.74 | 95 | 1012.2 |
| 20260903232509 | 79 | 83 | 1.0 | 3.0 | 0.00 | 0.74 | 0.74 | 95 | 1012.3 |
| 20260903232009 | 79 | 76 | 0.0 | 3.0 | 0.00 | 0.74 | 0.74 | 95 | 1012.5 |
| 20260903231517 | 79 | 119 | 1.0 | 3.0 | 0.00 | 0.74 | 0.74 | 95 | 1012.5 |
| 20260903231018 | 79 | 41 | 0.0 | 3.0 | 0.00 | 0.74 | 0.74 | 95 | 1012.5 |
| 20260903230516 | 79 | 87 | 1.0 | 4.0 | 0.00 | 0.74 | 0.74 | 95 | 1012.4 |
| 20260903230046 | 79 | 103 | 1.0 | 4.0 | 0.00 | 0.74 | 0.74 | 95 | 1012.5 |
| 20260903225519 | 79 | 178 | 1.0 | 4.0 | 0.00 | 0.74 | 0.74 | 95 | 1012.6 |
| 20260903225006 | 79 | 9 | 0.0 | 5.0 | 0.00 | 0.74 | 0.74 | 95 | 1012.5 |
| 20260903224512 | 79 | 190 | 1.0 | 5.0 | 0.00 | 0.74 | 0.74 | 95 | 1012.5 |
| 20260903224010 | 79 | 109 | 1.0 | 4.0 | 0.00 | 0.74 | 0.74 | 95 | 1012.4 |
| 20260903223512 | 79 | 34 | 0.0 | 3.0 | 0.00 | 0.74 | 0.74 | 95 | 1012.4 |
| 20260903223025 | 79 | 76 | 1.0 | 4.0 | 0.00 | 0.74 | 0.74 | 95 | 1012.4 |
| 20260903222512 | 79 | 111 | 1.0 | 4.0 | 0.01 | 0.74 | 0.74 | 95 | 1012.3 |
| 20260903222016 | 79 | 115 | 1.0 | 3.0 | 0.01 | 0.74 | 0.74 | 95 | 1012.4 |
| 20260903221531 | 79 | 67 | 1.0 | 4.0 | 0.02 | 0.74 | 0.74 | 95 | 1012.5 |
| 20260903221006 | 79 | 105 | 1.0 | 4.0 | 0.02 | 0.74 | 0.74 | 95 | 1012.6 |
| 20260903220512 | 79 | 22 | 1.0 | 6.0 | 0.03 | 0.74 | 0.74 | 95 | 1012.6 |
| 20260903220015 | 79 | 221 | 1.0 | 6.0 | 0.04 | 0.74 | 0.74 | 95 | 1012.6 |
| 20260903215511 | 79 | 101 | 1.0 | 3.0 | 0.05 | 0.74 | 0.74 | 95 | 1012.6 |
| 20260903215013 | 79 | 58 | 0.0 | 3.0 | 0.07 | 0.74 | 0.74 | 95 | 1012.9 |
| 20260903214537 | 79 | 178 | 1.0 | 3.0 | 0.08 | 0.74 | 0.74 | 95 | 1013.1 |
| 20260903214022 | 79 | 119 | 1.0 | 3.0 | 0.10 | 0.74 | 0.74 | 95 | 1013.1 |
| 20260903213519 | 79 | 109 | 2.0 | 3.0 | 0.10 | 0.74 | 0.74 | 95 | 1013.2 |
| 20260903213006 | 78 | 105 | 0.0 | 2.0 | 0.11 | 0.74 | 0.74 | 95 | 1013.3 |
| 20260903212507 | 78 | 229 | 1.0 | 2.0 | 0.10 | 0.73 | 0.73 | 95 | 1013.4 |
| 20260903212008 | 78 | 178 | 1.0 | 3.0 | 0.10 | 0.73 | 0.73 | 95 | 1013.5 |
| 20260903211520 | 78 | 15 | 1.0 | 3.0 | 0.09 | 0.72 | 0.72 | 95 | 1013.5 |
| 20260903211016 | 78 | 34 | 0.0 | 2.0 | 0.09 | 0.72 | 0.72 | 95 | 1013.5 |
| 20260903210517 | 78 | 76 | 1.0 | 2.0 | 0.08 | 0.71 | 0.71 | 95 | 1013.4 |
| 20260903210030 | 78 | 78 | 1.0 | 2.0 | 0.07 | 0.70 | 0.70 | 94 | 1013.3 |
| 20260903205517 | 78 | 78 | 2.0 | 3.0 | 0.06 | 0.69 | 0.69 | 94 | 1013.4 |
| 20260903205008 | 77 | 78 | 1.0 | 3.0 | 0.05 | 0.67 | 0.67 | 94 | 1013.4 |
| 20260903204514 | 77 | 77 | 2.0 | 3.0 | 0.06 | 0.66 | 0.66 | 94 | 1013.5 |
| 20260903204012 | 77 | 61 | 0.0 | 3.0 | 0.04 | 0.64 | 0.64 | 94 | 1013.6 |
| 20260903203516 | 77 | 93 | 1.0 | 3.0 | 0.04 | 0.64 | 0.64 | 94 | 1013.6 |
| 20260903203026 | 77 | 270 | 2.0 | 3.0 | 0.04 | 0.63 | 0.63 | 94 | 1013.6 |
| 20260903202514 | 77 | 270 | 2.0 | 3.0 | 0.05 | 0.63 | 0.63 | 94 | 1013.7 |
| 20260903202014 | 77 | 270 | 2.0 | 3.0 | 0.05 | 0.63 | 0.63 | 94 | 1013.8 |
| 20260903201535 | 77 | 270 | 2.0 | 3.0 | 0.05 | 0.63 | 0.63 | 93 | 1013.7 |
| 20260903201007 | 77 | 270 | 2.0 | 3.0 | 0.09 | 0.63 | 0.63 | 93 | 1013.7 |
| 20260903200507 | 77 | 270 | 2.0 | 3.0 | 0.25 | 0.63 | 0.63 | 93 | 1013.7 |
| 20260903200019 | 77 | 270 | 2.0 | 3.0 | 0.41 | 0.63 | 0.63 | 93 | 1013.6 |
| 20260903195511 | 78 | 270 | 2.0 | 3.0 | 0.52 | 0.63 | 0.63 | 93 | 1013.9 |
| 20260903195016 | 78 | 270 | 2.0 | 3.0 | 0.62 | 0.62 | 0.62 | 93 | 1013.9 |
| 20260903194533 | 78 | 270 | 2.0 | 3.0 | 0.60 | 0.60 | 0.60 | 92 | 1013.9 |
| 20260903194018 | 78 | 270 | 2.0 | 3.0 | 0.60 | 0.60 | 0.60 | 92 | 1013.9 |
| 20260903193521 | 78 | 270 | 2.0 | 3.0 | 0.60 | 0.60 | 0.60 | 92 | 1013.9 |
| 20260903193036 | 78 | 270 | 2.0 | 3.0 | 0.58 | 0.58 | 0.58 | 92 | 1014.0 |
| 20260903192511 | 78 | 270 | 2.0 | 3.0 | 0.58 | 0.58 | 0.58 | 91 | 1014.1 |
| 20260903192014 | 78 | 270 | 2.0 | 3.0 | 0.58 | 0.58 | 0.58 | 91 | 1014.3 |
| 20260903191524 | 78 | 270 | 2.0 | 6.0 | 0.58 | 0.58 | 0.58 | 90 | 1014.5 |
| 20260903191018 | 79 | 270 | 2.0 | 6.0 | 0.54 | 0.54 | 0.54 | 89 | 1014.6 |
| 20260903190517 | 80 | 211 | 2.0 | 14.0 | 0.38 | 0.38 | 0.38 | 86 | 1014.3 |
| 20260903190031 | 82 | 136 | 2.0 | 18.0 | 0.22 | 0.22 | 0.22 | 85 | 1013.9 |
| 20260903185520 | 84 | 198 | 9.0 | 18.0 | 0.10 | 0.10 | 0.10 | 82 | 1014.2 |
| 20260903185018 | 87 | 137 | 4.0 | 10.0 | 0.00 | 0.00 | 0.00 | 79 | 1014.3 |
| 20260903184516 | 87 | 190 | 2.0 | 9.0 | 0.00 | 0.00 | 0.00 | 79 | 1013.8 |
| 20260903184010 | 88 | 119 | 2.0 | 7.0 | 0.00 | 0.00 | 0.00 | 79 | 1013.7 |
| 20260903183511 | 88 | 265 | 2.0 | 8.0 | 0.00 | 0.00 | 0.00 | 78 | 1013.7 |
| 20260903183024 | 89 | 93 | 3.0 | 8.0 | 0.00 | 0.00 | 0.00 | 76 | 1013.6 |
| 20260903182514 | 89 | 124 | 4.0 | 8.0 | 0.00 | 0.00 | 0.00 | 76 | 1013.8 |
| 20260903182017 | 89 | 76 | 2.0 | 5.0 | 0.00 | 0.00 | 0.00 | 75 | 1013.8 |
| 20260903181532 | 90 | 65 | 2.0 | 5.0 | 0.00 | 0.00 | 0.00 | 75 | 1013.7 |
| 20260903181020 | 91 | 88 | 1.0 | 4.0 | 0.00 | 0.00 | 0.00 | 76 | 1013.7 |
| 20260903180508 | 91 | 76 | 1.0 | 6.0 | 0.00 | 0.00 | 0.00 | 74 | 1013.7 |
| 20260903180044 | 91 | 71 | 1.0 | 6.0 | 0.00 | 0.00 | 0.00 | 74 | 1013.8 |
| 20260903175514 | 91 | 93 | 2.0 | 5.0 | 0.00 | 0.00 | 0.00 | 74 | 1013.8 |
| 20260903175014 | 92 | 56 | 1.0 | 5.0 | 0.00 | 0.00 | 0.00 | 74 | 1013.8 |
| 20260903174529 | 92 | 282 | 1.0 | 6.0 | 0.00 | 0.00 | 0.00 | 73 | 1014.0 |
| 20260903174019 | 92 | 93 | 1.0 | 7.0 | 0.00 | 0.00 | 0.00 | 73 | 1013.9 |
| 20260903173516 | 93 | 187 | 2.0 | 9.0 | 0.00 | 0.00 | 0.00 | 72 | 1013.8 |
| 20260903173033 | 93 | 178 | 2.0 | 9.0 | 0.00 | 0.00 | 0.00 | 73 | 1013.7 |
| 20260903172511 | 93 | 134 | 2.0 | 6.0 | 0.00 | 0.00 | 0.00 | 74 | 1013.7 |
| 20260903172011 | 93 | 190 | 2.0 | 10.0 | 0.00 | 0.00 | 0.00 | 74 | 1013.7 |
| 20260903171524 | 93 | 257 | 4.0 | 10.0 | 0.00 | 0.00 | 0.00 | 74 | 1013.8 |
| 20260903171017 | 93 | 200 | 3.0 | 9.0 | 0.00 | 0.00 | 0.00 | 75 | 1013.9 |
| 20260903170516 | 93 | 200 | 1.0 | 7.0 | 0.00 | 0.00 | 0.00 | 75 | 1014.0 |
| 20260903170046 | 93 | 93 | 1.0 | 10.0 | 0.00 | 0.00 | 0.00 | 75 | 1014.1 |
| 20260903165518 | 93 | 165 | 2.0 | 10.0 | 0.00 | 0.00 | 0.00 | 76 | 1014.2 |
| 20260903165017 | 93 | 160 | 3.0 | 10.0 | 0.00 | 0.00 | 0.00 | 77 | 1014.3 |
| 20260903164518 | 92 | 161 | 3.0 | 8.0 | 0.00 | 0.00 | 0.00 | 77 | 1014.4 |
| 20260903164017 | 92 | 272 | 3.0 | 10.0 | 0.00 | 0.00 | 0.00 | 77 | 1014.5 |
| 20260903163515 | 91 | 252 | 3.0 | 10.0 | 0.00 | 0.00 | 0.00 | 78 | 1014.5 |
| 20260903163027 | 90 | 243 | 2.0 | 6.0 | 0.00 | 0.00 | 0.00 | 81 | 1014.5 |
| 20260903162514 | 89 | 232 | 2.0 | 6.0 | 0.00 | 0.00 | 0.00 | 81 | 1014.4 |
| 20260903162016 | 89 | 93 | 1.0 | 6.0 | 0.00 | 0.00 | 0.00 | 81 | 1014.4 |
| 20260903161530 | 89 | 298 | 2.0 | 6.0 | 0.00 | 0.00 | 0.00 | 80 | 1014.5 |
| 20260903161018 | 89 | 306 | 2.0 | 8.0 | 0.00 | 0.00 | 0.00 | 80 | 1014.5 |
| 20260903160517 | 89 | 319 | 2.0 | 8.0 | 0.00 | 0.00 | 0.00 | 81 | 1014.5 |
| 20260903160037 | 88 | 211 | 1.0 | 5.0 | 0.00 | 0.00 | 0.00 | 84 | 1014.5 |
| 20260903155514 | 88 | 178 | 2.0 | 8.0 | 0.00 | 0.00 | 0.00 | 83 | 1014.5 |
| 20260903155017 | 88 | 309 | 2.0 | 8.0 | 0.00 | 0.00 | 0.00 | 83 | 1014.3 |
| 20260903154529 | 88 | 236 | 2.0 | 6.0 | 0.00 | 0.00 | 0.00 | 83 | 1014.3 |
| 20260903154022 | 87 | 275 | 2.0 | 6.0 | 0.00 | 0.00 | 0.00 | 83 | 1014.3 |
| 20260903153522 | 88 | 271 | 2.0 | 6.0 | 0.00 | 0.00 | 0.00 | 84 | 1014.4 |
| 20260903153035 | 88 | 144 | 1.0 | 9.0 | 0.00 | 0.00 | 0.00 | 84 | 1014.4 |
| 20260903152510 | 88 | 209 | 4.0 | 9.0 | 0.00 | 0.00 | 0.00 | 84 | 1014.4 |
| 20260903152014 | 88 | 196 | 4.0 | 9.0 | 0.00 | 0.00 | 0.00 | 84 | 1014.4 |
| 20260903151528 | 87 | 86 | 2.0 | 9.0 | 0.00 | 0.00 | 0.00 | 85 | 1014.5 |
| 20260903151013 | 87 | 207 | 3.0 | 9.0 | 0.00 | 0.00 | 0.00 | 85 | 1014.5 |
| 20260903150517 | 87 | 150 | 3.0 | 9.0 | 0.00 | 0.00 | 0.00 | 85 | 1014.5 |
| 20260903150011 | 87 | 221 | 3.0 | 12.0 | 0.00 | 0.00 | 0.00 | 86 | 1014.6 |
| 20260903145508 | 86 | 163 | 3.0 | 12.0 | 0.00 | 0.00 | 0.00 | 86 | 1014.6 |
| 20260903145008 | 86 | 171 | 4.0 | 13.0 | 0.00 | 0.00 | 0.00 | 87 | 1014.5 |
| 20260903144521 | 86 | 155 | 3.0 | 13.0 | 0.00 | 0.00 | 0.00 | 87 | 1014.7 |
| 20260903144012 | 85 | 148 | 2.0 | 7.0 | 0.00 | 0.00 | 0.00 | 88 | 1014.7 |
| 20260903143514 | 85 | 155 | 2.0 | 8.0 | 0.00 | 0.00 | 0.00 | 88 | 1014.6 |
| 20260903143027 | 85 | 182 | 4.0 | 8.0 | 0.00 | 0.00 | 0.00 | 88 | 1014.6 |
| 20260903142518 | 84 | 173 | 3.0 | 8.0 | 0.00 | 0.00 | 0.00 | 88 | 1014.6 |
| 20260903142006 | 84 | 178 | 2.0 | 8.0 | 0.00 | 0.00 | 0.00 | 89 | 1014.5 |
| 20260903141513 | 84 | 191 | 3.0 | 7.0 | 0.00 | 0.00 | 0.00 | 89 | 1014.5 |
| 20260903141013 | 84 | 221 | 3.0 | 7.0 | 0.00 | 0.00 | 0.00 | 90 | 1014.4 |
| 20260903140511 | 83 | 175 | 2.0 | 6.0 | 0.00 | 0.00 | 0.00 | 90 | 1014.4 |
| 20260903140037 | 83 | 171 | 2.0 | 7.0 | 0.00 | 0.00 | 0.00 | 91 | 1014.5 |
| 20260903135515 | 83 | 178 | 2.0 | 7.0 | 0.00 | 0.00 | 0.00 | 91 | 1014.5 |
| 20260903135020 | 82 | 254 | 1.0 | 8.0 | 0.00 | 0.00 | 0.00 | 91 | 1014.5 |
| 20260903134533 | 82 | 205 | 3.0 | 8.0 | 0.00 | 0.00 | 0.00 | 91 | 1014.5 |
| 20260903134006 | 82 | 183 | 2.0 | 6.0 | 0.00 | 0.00 | 0.00 | 91 | 1014.5 |
| 20260903133510 | 82 | 155 | 3.0 | 6.0 | 0.00 | 0.00 | 0.00 | 92 | 1014.5 |
| 20260903133016 | 81 | 119 | 1.0 | 6.0 | 0.00 | 0.00 | 0.00 | 92 | 1014.4 |
| 20260903132512 | 81 | 161 | 2.0 | 6.0 | 0.00 | 0.00 | 0.00 | 91 | 1014.5 |
| 20260903132014 | 81 | 178 | 2.0 | 4.0 | 0.00 | 0.00 | 0.00 | 91 | 1014.4 |
| 20260903131526 | 81 | 132 | 1.0 | 4.0 | 0.00 | 0.00 | 0.00 | 91 | 1014.4 |
| 20260903131014 | 81 | 163 | 1.0 | 4.0 | 0.00 | 0.00 | 0.00 | 91 | 1014.4 |
| 20260903130518 | 81 | 93 | 1.0 | 4.0 | 0.00 | 0.00 | 0.00 | 91 | 1014.3 |
| 20260903130010 | 81 | 155 | 1.0 | 5.0 | 0.00 | 0.00 | 0.00 | 91 | 1014.3 |
| 20260903125507 | 81 | 178 | 1.0 | 5.0 | 0.00 | 0.00 | 0.00 | 91 | 1014.2 |
| 20260903125009 | 81 | 238 | 1.0 | 4.0 | 0.00 | 0.00 | 0.00 | 91 | 1014.1 |
| 20260903124521 | 80 | 146 | 1.0 | 5.0 | 0.00 | 0.00 | 0.00 | 91 | 1014.0 |
| 20260903124014 | 80 | 178 | 1.0 | 7.0 | 0.00 | 0.00 | 0.00 | 91 | 1013.9 |
| 20260903123516 | 80 | 170 | 2.0 | 7.0 | 0.00 | 0.00 | 0.00 | 90 | 1013.8 |
| 20260903123036 | 80 | 163 | 1.0 | 5.0 | 0.00 | 0.00 | 0.00 | 90 | 1013.7 |
| 20260903122520 | 80 | 157 | 2.0 | 6.0 | 0.00 | 0.00 | 0.00 | 90 | 1013.7 |
| 20260903122020 | 80 | 178 | 2.0 | 8.0 | 0.00 | 0.00 | 0.00 | 90 | 1013.7 |
| 20260903121515 | 81 | 196 | 0.0 | 9.0 | 0.00 | 0.00 | 0.00 | 90 | 1013.6 |
| 20260903121015 | 81 | 178 | 1.0 | 9.0 | 0.00 | 0.00 | 0.00 | 90 | 1013.5 |
| 20260903120515 | 81 | 165 | 3.0 | 9.0 | 0.00 | 0.00 | 0.00 | 90 | 1013.4 |
| 20260903120025 | 80 | 184 | 4.0 | 7.0 | 0.00 | 0.00 | 0.00 | 89 | 1013.4 |
| 20260903115514 | 80 | 178 | 2.0 | 7.0 | 0.00 | 0.00 | 0.00 | 89 | 1013.5 |
| 20260903115016 | 80 | 178 | 3.0 | 6.0 | 0.00 | 0.00 | 0.00 | 89 | 1013.6 |
| 20260903114548 | 80 | 163 | 2.0 | 8.0 | 0.00 | 0.00 | 0.00 | 88 | 1013.6 |
| 20260903114018 | 80 | 137 | 3.0 | 8.0 | 0.00 | 0.00 | 0.00 | 88 | 1013.6 |
| 20260903113510 | 80 | 163 | 2.0 | 7.0 | 0.00 | 0.00 | 0.00 | 88 | 1013.6 |
| 20260903113023 | 80 | 218 | 4.0 | 8.0 | 0.00 | 0.00 | 0.00 | 88 | 1013.6 |
| 20260903112519 | 80 | 153 | 3.0 | 9.0 | 0.00 | 0.00 | 0.00 | 89 | 1013.6 |
| 20260903112013 | 81 | 236 | 4.0 | 10.0 | 0.00 | 0.00 | 0.00 | 89 | 1013.5 |
| 20260903111529 | 81 | 191 | 4.0 | 10.0 | 0.00 | 0.00 | 0.00 | 89 | 1013.5 |
| 20260903111019 | 81 | 173 | 4.0 | 10.0 | 0.00 | 0.00 | 0.00 | 89 | 1013.6 |
| 20260903110519 | 82 | 184 | 4.0 | 10.0 | 0.00 | 0.00 | 0.00 | 89 | 1013.5 |
| 20260903110035 | 82 | 165 | 2.0 | 8.0 | 0.00 | 0.00 | 0.00 | 89 | 1013.6 |
| 20260903105512 | 82 | 190 | 3.0 | 8.0 | 0.00 | 0.00 | 0.00 | 89 | 1013.5 |
| 20260903105012 | 82 | 189 | 3.0 | 7.0 | 0.00 | 0.00 | 0.00 | 89 | 1013.5 |
| 20260903104524 | 82 | 209 | 2.0 | 9.0 | 0.00 | 0.00 | 0.00 | 89 | 1013.5 |
| 20260903104012 | 82 | 194 | 3.0 | 9.0 | 0.00 | 0.00 | 0.00 | 89 | 1013.4 |
| 20260903103516 | 82 | 169 | 4.0 | 9.0 | 0.00 | 0.00 | 0.00 | 89 | 1013.3 |
| 20260903103032 | 82 | 221 | 3.0 | 7.0 | 0.00 | 0.00 | 0.00 | 89 | 1013.3 |
| 20260903102521 | 82 | 196 | 3.0 | 7.0 | 0.00 | 0.00 | 0.00 | 89 | 1013.2 |
| 20260903102022 | 82 | 178 | 3.0 | 8.0 | 0.00 | 0.00 | 0.00 | 88 | 1013.2 |
| 20260903101516 | 82 | 178 | 3.0 | 8.0 | 0.00 | 0.00 | 0.00 | 89 | 1013.3 |
| 20260903101011 | 82 | 93 | 2.0 | 8.0 | 0.00 | 0.00 | 0.00 | 88 | 1013.3 |
| 20260903100512 | 82 | 194 | 3.0 | 8.0 | 0.00 | 0.00 | 0.00 | 88 | 1013.4 |
| 20260903100031 | 82 | 170 | 3.0 | 8.0 | 0.00 | 0.00 | 0.00 | 89 | 1013.3 |
| 20260903095514 | 82 | 175 | 3.0 | 8.0 | 0.00 | 0.00 | 0.00 | 89 | 1013.3 |
| 20260903095015 | 82 | 157 | 3.0 | 8.0 | 0.00 | 0.00 | 0.00 | 89 | 1013.3 |
| 20260903094515 | 82 | 144 | 3.0 | 6.0 | 0.00 | 0.00 | 0.00 | 89 | 1013.4 |
| 20260903094011 | 82 | 232 | 3.0 | 10.0 | 0.00 | 0.00 | 0.00 | 89 | 1013.3 |
| 20260903093512 | 82 | 160 | 3.0 | 10.0 | 0.00 | 0.00 | 0.00 | 89 | 1013.3 |
| 20260903093033 | 82 | 221 | 4.0 | 10.0 | 0.00 | 0.00 | 0.00 | 89 | 1013.4 |
| 20260903092510 | 82 | 157 | 4.0 | 9.0 | 0.00 | 0.00 | 0.00 | 89 | 1013.4 |
| 20260903092008 | 82 | 161 | 2.0 | 9.0 | 0.00 | 0.00 | 0.00 | 89 | 1013.3 |
| 20260903091512 | 82 | 196 | 4.0 | 9.0 | 0.00 | 0.00 | 0.00 | 89 | 1013.3 |
| 20260903091008 | 82 | 187 | 3.0 | 7.0 | 0.00 | 0.00 | 0.00 | 89 | 1013.3 |
| 20260903090512 | 82 | 166 | 3.0 | 8.0 | 0.00 | 0.00 | 0.00 | 89 | 1013.3 |
| 20260903090019 | 82 | 178 | 3.0 | 8.0 | 0.00 | 0.00 | 0.00 | 89 | 1013.3 |
| 20260903085510 | 82 | 245 | 3.0 | 8.0 | 0.00 | 0.00 | 0.00 | 89 | 1013.4 |
| 20260903085008 | 82 | 93 | 1.0 | 8.0 | 0.00 | 0.00 | 0.00 | 89 | 1013.3 |
| 20260903084528 | 82 | 192 | 3.0 | 9.0 | 0.00 | 0.00 | 0.00 | 89 | 1013.3 |
| 20260903084010 | 82 | 183 | 4.0 | 9.0 | 0.00 | 0.00 | 0.00 | 89 | 1013.2 |
| 20260903083508 | 82 | 150 | 2.0 | 8.0 | 0.00 | 0.00 | 0.00 | 89 | 1013.3 |
| 20260903083016 | 82 | 178 | 2.0 | 8.0 | 0.00 | 0.00 | 0.00 | 89 | 1013.2 |
| 20260903082512 | 82 | 183 | 3.0 | 9.0 | 0.00 | 0.00 | 0.00 | 89 | 1013.2 |
| 20260903082007 | 82 | 178 | 2.0 | 9.0 | 0.00 | 0.00 | 0.00 | 89 | 1013.2 |
| 20260903081516 | 82 | 188 | 4.0 | 9.0 | 0.00 | 0.00 | 0.00 | 89 | 1013.1 |
| 20260903081011 | 82 | 193 | 3.0 | 9.0 | 0.00 | 0.00 | 0.00 | 89 | 1013.0 |
| 20260903080508 | 82 | 279 | 3.0 | 10.0 | 0.00 | 0.00 | 0.00 | 89 | 1013.0 |
| 20260903080015 | 82 | 155 | 3.0 | 10.0 | 0.00 | 0.00 | 0.00 | 89 | 1013.0 |
| 20260903075511 | 82 | 211 | 4.0 | 10.0 | 0.00 | 0.00 | 0.00 | 89 | 1013.0 |
| 20260903075010 | 82 | 157 | 4.0 | 10.0 | 0.00 | 0.00 | 0.00 | 89 | 1013.1 |
| 20260903074517 | 82 | 187 | 5.0 | 10.0 | 0.00 | 0.00 | 0.00 | 89 | 1013.1 |
| 20260903074011 | 82 | 200 | 3.0 | 9.0 | 0.00 | 0.00 | 0.00 | 89 | 1013.1 |
| 20260903073512 | 82 | 166 | 4.0 | 9.0 | 0.00 | 0.00 | 0.00 | 89 | 1013.1 |
| 20260903073016 | 82 | 157 | 3.0 | 14.0 | 0.00 | 0.00 | 0.00 | 89 | 1013.1 |
| 20260903072511 | 82 | 178 | 4.0 | 14.0 | 0.00 | 0.00 | 0.00 | 89 | 1013.1 |
| 20260903072012 | 82 | 178 | 4.0 | 11.0 | 0.00 | 0.00 | 0.00 | 89 | 1013.2 |
| 20260903071520 | 82 | 196 | 5.0 | 11.0 | 0.00 | 0.00 | 0.00 | 89 | 1013.2 |
| 20260903071013 | 82 | 194 | 4.0 | 11.0 | 0.00 | 0.00 | 0.00 | 89 | 1013.3 |
| 20260903070508 | 82 | 165 | 3.0 | 9.0 | 0.00 | 0.00 | 0.00 | 89 | 1013.2 |
| 20260903070020 | 83 | 183 | 5.0 | 15.0 | 0.00 | 0.00 | 0.00 | 89 | 1013.4 |
| 20260903065508 | 83 | 221 | 6.0 | 15.0 | 0.00 | 0.00 | 0.00 | 89 | 1013.5 |
| 20260903065012 | 83 | 189 | 4.0 | 12.0 | 0.00 | 0.00 | 0.00 | 89 | 1013.5 |
| 20260903064519 | 83 | 178 | 3.0 | 12.0 | 0.00 | 0.00 | 0.00 | 89 | 1013.6 |
| 20260903064012 | 83 | 196 | 3.0 | 8.0 | 0.00 | 0.00 | 0.00 | 89 | 1013.8 |
| 20260903063513 | 83 | 168 | 3.0 | 7.0 | 0.00 | 0.00 | 0.00 | 89 | 1013.9 |
| 20260903063017 | 83 | 178 | 2.0 | 7.0 | 0.00 | 0.00 | 0.00 | 89 | 1013.9 |
| 20260903062512 | 83 | 178 | 2.0 | 6.0 | 0.00 | 0.00 | 0.00 | 89 | 1013.9 |
| 20260903062012 | 83 | 200 | 3.0 | 6.0 | 0.00 | 0.00 | 0.00 | 89 | 1013.9 |
| 20260903061519 | 83 | 144 | 2.0 | 11.0 | 0.00 | 0.00 | 0.00 | 89 | 1013.9 |
| 20260903061013 | 83 | 247 | 2.0 | 11.0 | 0.00 | 0.00 | 0.00 | 89 | 1013.8 |
| 20260903060512 | 83 | 190 | 3.0 | 8.0 | 0.00 | 0.00 | 0.00 | 88 | 1013.8 |
| 20260903060017 | 83 | 51 | 3.0 | 8.0 | 0.00 | 0.00 | 0.00 | 89 | 1013.9 |
| 20260903055513 | 83 | 178 | 2.0 | 7.0 | 0.00 | 0.00 | 0.00 | 88 | 1014.0 |
| 20260903055016 | 83 | 168 | 1.0 | 7.0 | 0.00 | 0.00 | 0.00 | 88 | 1014.1 |
| 20260903054525 | 83 | 168 | 1.0 | 8.0 | 0.00 | 0.00 | 0.00 | 88 | 1014.2 |
| 20260903054010 | 83 | 184 | 3.0 | 9.0 | 0.00 | 0.00 | 0.00 | 88 | 1014.2 |
| 20260903053510 | 83 | 187 | 3.0 | 9.0 | 0.00 | 0.00 | 0.00 | 88 | 1014.2 |
| 20260903053018 | 83 | 165 | 3.0 | 7.0 | 0.00 | 0.00 | 0.00 | 88 | 1014.2 |
| 20260903052511 | 84 | 144 | 2.0 | 5.0 | 0.00 | 0.00 | 0.00 | 88 | 1014.3 |
| 20260903052015 | 84 | 171 | 1.0 | 6.0 | 0.00 | 0.00 | 0.00 | 88 | 1014.5 |
| 20260903051519 | 84 | 193 | 1.0 | 6.0 | 0.00 | 0.00 | 0.00 | 88 | 1014.6 |
| 20260903051011 | 84 | 157 | 2.0 | 6.0 | 0.00 | 0.00 | 0.00 | 88 | 1014.7 |
| 20260903050508 | 84 | 170 | 2.0 | 6.0 | 0.00 | 0.00 | 0.00 | 88 | 1014.8 |
| 20260903050017 | 84 | 198 | 2.0 | 6.0 | 0.00 | 0.00 | 0.00 | 88 | 1014.9 |
| 20260903045514 | 84 | 205 | 1.0 | 5.0 | 0.00 | 0.00 | 0.00 | 88 | 1014.9 |
| 20260903045012 | 84 | 193 | 2.0 | 5.0 | 0.00 | 0.00 | 0.00 | 88 | 1015.0 |
| 20260903044516 | 84 | 150 | 1.0 | 4.0 | 0.00 | 0.00 | 0.00 | 88 | 1014.9 |
| 20260903044013 | 84 | 178 | 1.0 | 4.0 | 0.00 | 0.00 | 0.00 | 88 | 1014.9 |
| 20260903043514 | 84 | 165 | 1.0 | 7.0 | 0.00 | 0.00 | 0.00 | 88 | 1014.8 |
| 20260903043017 | 84 | 153 | 2.0 | 7.0 | 0.00 | 0.00 | 0.00 | 88 | 1014.6 |
| 20260903042511 | 84 | 184 | 3.0 | 6.0 | 0.00 | 0.00 | 0.00 | 88 | 1014.7 |
| 20260903042013 | 84 | 140 | 2.0 | 7.0 | 0.00 | 0.00 | 0.00 | 87 | 1014.6 |
| 20260903041519 | 84 | 178 | 2.0 | 7.0 | 0.00 | 0.00 | 0.00 | 87 | 1014.6 |
| 20260903041013 | 84 | 126 | 2.0 | 9.0 | 0.00 | 0.00 | 0.00 | 87 | 1014.5 |
| 20260903040511 | 84 | 232 | 2.0 | 9.0 | 0.00 | 0.00 | 0.00 | 87 | 1014.5 |
| 20260903040018 | 84 | 182 | 2.0 | 10.0 | 0.00 | 0.00 | 0.00 | 87 | 1014.5 |
| 20260903035513 | 84 | 186 | 3.0 | 10.0 | 0.00 | 0.00 | 0.00 | 87 | 1014.3 |
| 20260903035010 | 84 | 168 | 4.0 | 10.0 | 0.00 | 0.00 | 0.00 | 87 | 1014.1 |
| 20260903034514 | 84 | 159 | 5.0 | 9.0 | 0.00 | 0.00 | 0.00 | 87 | 1014.1 |
| 20260903034008 | 84 | 145 | 3.0 | 9.0 | 0.00 | 0.00 | 0.00 | 87 | 1014.2 |
| 20260903033512 | 84 | 184 | 4.0 | 9.0 | 0.00 | 0.00 | 0.00 | 87 | 1014.1 |
| 20260903033030 | 84 | 161 | 5.0 | 9.0 | 0.00 | 0.00 | 0.00 | 87 | 1014.1 |
| 20260903032510 | 84 | 188 | 4.0 | 10.0 | 0.00 | 0.00 | 0.00 | 87 | 1014.1 |
| 20260903032014 | 84 | 108 | 2.0 | 10.0 | 0.00 | 0.00 | 0.00 | 87 | 1014.0 |
| 20260903031522 | 84 | 144 | 3.0 | 9.0 | 0.00 | 0.00 | 0.00 | 86 | 1013.8 |
| 20260903031014 | 84 | 209 | 5.0 | 9.0 | 0.00 | 0.00 | 0.00 | 86 | 1013.8 |
| 20260903030513 | 84 | 202 | 3.0 | 9.0 | 0.00 | 0.00 | 0.00 | 86 | 1013.8 |
| 20260903030019 | 84 | 161 | 3.0 | 8.0 | 0.00 | 0.00 | 0.00 | 85 | 1013.6 |
| 20260903025513 | 84 | 164 | 3.0 | 14.0 | 0.00 | 0.00 | 0.00 | 85 | 1013.5 |
| 20260903025012 | 84 | 205 | 3.0 | 14.0 | 0.00 | 0.00 | 0.00 | 85 | 1013.4 |
| 20260903024524 | 85 | 193 | 5.0 | 10.0 | 0.00 | 0.00 | 0.00 | 84 | 1013.3 |
| 20260903024011 | 85 | 145 | 3.0 | 10.0 | 0.00 | 0.00 | 0.00 | 84 | 1013.3 |
| 20260903023514 | 85 | 178 | 3.0 | 11.0 | 0.00 | 0.00 | 0.00 | 83 | 1013.3 |
| 20260903023023 | 85 | 157 | 4.0 | 11.0 | 0.00 | 0.00 | 0.00 | 82 | 1013.2 |
| 20260903022511 | 85 | 157 | 4.0 | 10.0 | 0.00 | 0.00 | 0.00 | 82 | 1013.2 |
| 20260903022011 | 85 | 178 | 4.0 | 13.0 | 0.00 | 0.00 | 0.00 | 81 | 1013.2 |
| 20260903021533 | 85 | 205 | 3.0 | 13.0 | 0.00 | 0.00 | 0.00 | 81 | 1013.2 |
| 20260903021014 | 85 | 196 | 3.0 | 14.0 | 0.00 | 0.00 | 0.00 | 80 | 1013.1 |
| 20260903020515 | 85 | 153 | 5.0 | 14.0 | 0.00 | 0.00 | 0.00 | 80 | 1013.1 |
| 20260903020026 | 86 | 178 | 4.0 | 14.0 | 0.00 | 0.00 | 0.00 | 79 | 1012.9 |
| 20260903015511 | 86 | 155 | 6.0 | 12.0 | 0.00 | 0.00 | 0.00 | 79 | 1012.7 |
| 20260903015011 | 86 | 170 | 5.0 | 11.0 | 0.00 | 0.00 | 0.00 | 78 | 1012.6 |
| 20260903014513 | 86 | 177 | 5.0 | 12.0 | 0.00 | 0.00 | 0.00 | 77 | 1012.5 |
| 20260903014013 | 86 | 167 | 5.0 | 13.0 | 0.00 | 0.00 | 0.00 | 76 | 1012.3 |
| 20260903013513 | 87 | 162 | 4.0 | 16.0 | 0.00 | 0.00 | 0.00 | 75 | 1012.4 |
| 20260903013024 | 87 | 157 | 7.0 | 16.0 | 0.00 | 0.00 | 0.00 | 75 | 1012.3 |